KC4LU Weather Reports


Display with metric or nautical units.
time (UTC)temp
F
wind
direction
speed
MPH
gust
MPH
rain 1hr
in
rain 24hr
in
rain mn
in
humidity
%
barometer
mb
20190322100939 42 268 6.0 10.0 0.00 0.00 0.00 70 1015.6
20190322095440 41 271 8.0 12.0 0.00 0.00 0.00 65 1015.5
20190322093943 42 274 11.0 13.0 0.00 0.00 0.00 67 1015.5
20190322092441 41 261 11.0 18.0 0.00 0.00 0.00 66 1015.5
20190322090934 41 281 14.0 16.0 0.00 0.00 0.00 67 1015.6
20190322085439 41 269 10.0 14.0 0.00 0.00 0.00 69 1015.6
20190322083940 41 270 11.0 13.0 0.00 0.00 0.00 71 1015.5
20190322082443 41 267 11.0 17.0 0.00 0.00 0.00 70 1015.5
20190322080946 41 271 10.0 15.0 0.00 0.00 0.00 72 1015.7
20190322075449 41 273 10.0 15.0 0.00 0.00 0.00 72 1015.8
20190322073928 41 286 11.0 14.0 0.00 0.00 0.00 73 1015.7
20190322072433 41 290 11.0 15.0 0.00 0.00 0.00 73 1015.9
20190322070937 41 281 14.0 19.0 0.00 0.00 0.00 73 1015.8
20190322065443 41 288 10.0 15.0 0.00 0.00 0.00 73 1015.9
20190322063949 41 279 9.0 14.0 0.00 0.00 0.00 72 1015.9
20190322062450 41 287 10.0 14.0 0.00 0.00 0.00 72 1016.0
20190322060933 41 296 12.0 14.0 0.00 0.00 0.00 73 1016.0
20190322055432 41 283 13.0 14.0 0.00 0.00 0.00 72 1016.0
20190322053935 41 269 3.0 6.0 0.00 0.00 0.00 70 1015.7
20190322052431 41 269 6.0 12.0 0.00 0.00 0.00 70 1015.7
20190322050936 41 276 6.0 11.0 0.00 0.00 0.15 69 1015.8
20190322045439 42 281 8.0 11.0 0.00 0.00 0.15 69 1015.8
20190322043944 42 288 8.0 10.0 0.00 0.00 0.15 69 1015.8
20190322042442 42 286 7.0 11.0 0.00 0.00 0.15 69 1016.7
20190322040941 42 302 5.0 12.0 0.00 0.00 0.15 68 1016.5
20190322035441 42 272 4.0 10.0 0.00 0.00 0.15 66 1016.2
20190322033941 43 271 6.0 11.0 0.00 0.00 0.15 69 1016.1
20190322032505 43 281 8.0 16.0 0.00 0.00 0.15 69 1016.1
20190322030944 43 279 13.0 19.0 0.00 0.00 0.15 66 1015.9
20190322025443 43 281 12.0 17.0 0.00 0.00 0.15 67 1015.7
20190322023947 43 286 15.0 20.0 0.00 0.00 0.15 67 1015.5
20190322022428 43 305 10.0 16.0 0.00 0.00 0.15 68 1015.3
20190322020954 43 321 13.0 19.0 0.00 0.00 0.15 67 1015.1
20190322015433 43 294 14.0 17.0 0.00 0.00 0.15 72 1015.0
20190322013939 44 323 12.0 16.0 0.00 0.00 0.15 72 1014.8
20190322012441 44 333 13.0 21.0 0.00 0.00 0.15 75 1014.7
20190322010931 44 323 9.0 0.0 0.00 0.00 0.15 76 1014.6
20190322005427 44 334 8.0 0.0 0.00 0.00 0.15 74 1014.0
20190322003938 45 299 13.0 0.0 0.00 0.00 0.15 74 1013.5
20190322002435 45 292 12.0 0.0 0.00 0.00 0.15 73 1013.4
20190322000929 45 288 9.0 0.0 0.00 0.00 0.15 76 1013.4
20190321235441 45 279 11.0 0.0 0.00 0.00 0.15 79 1013.3
20190321233935 43 295 3.0 0.0 0.00 0.00 0.15 86 1012.0
20190321232427 42 321 6.0 0.0 0.00 0.00 0.15 87 1011.9
20190321230943 42 318 11.0 0.0 0.00 0.00 0.15 88 1011.8
20190321225438 42 296 25.0 0.0 0.00 0.00 0.14 85 1012.5
20190321223933 47 230 8.0 0.0 0.00 0.00 0.12 68 1011.4
20190321222444 47 226 7.0 0.0 0.00 0.00 0.12 71 1011.7
20190321220935 47 248 5.0 0.0 0.00 0.00 0.12 72 1011.5
20190321215430 48 251 8.0 0.0 0.00 0.00 0.12 68 1011.4
20190321213942 49 257 5.0 0.0 0.00 0.00 0.12 67 1011.4
20190321212440 47 257 4.0 0.0 0.00 0.00 0.11 76 1011.4
20190321210929 47 261 9.0 0.0 0.00 0.00 0.11 84 1011.5
20190321205444 47 239 2.0 0.0 0.00 0.00 0.09 82 1011.3
20190321203935 47 239 0.0 0.0 0.00 0.00 0.09 81 1011.3
20190321202430 49 239 9.0 0.0 0.00 0.00 0.05 76 1011.0
20190321200942 50 265 4.0 0.0 0.00 0.00 0.02 69 1011.1
20190321195437 49 267 5.0 0.0 0.00 0.00 0.02 74 1011.3
20190321193932 49 267 6.0 0.0 0.00 0.00 0.02 78 1011.6
20190321192443 48 284 5.0 0.0 0.00 0.00 0.02 81 1011.8
20190321190938 47 287 2.0 0.0 0.00 0.00 0.02 83 1012.0
20190321185430 46 287 2.0 0.0 0.00 0.00 0.02 85 1012.4
20190321183945 46 287 2.0 0.0 0.00 0.00 0.02 86 1012.6
20190321182437 46 287 9.0 0.0 0.00 0.00 0.01 84 1012.9
20190321180928 46 286 12.0 0.0 0.00 0.00 0.00 79 1012.8
20190321175447 47 296 15.0 0.0 0.00 0.00 0.00 76 1012.7
20190321173938 48 298 15.0 0.0 0.00 0.00 0.00 72 1012.6
20190321172437 49 279 12.0 0.0 0.00 0.00 0.00 67 1012.3
20190321170928 50 275 14.0 0.0 0.00 0.00 0.00 64 1012.2
20190321165447 50 273 13.0 0.0 0.00 0.00 0.00 63 1012.2
20190321163936 51 271 10.0 0.0 0.00 0.00 0.00 61 1012.1
20190321162432 52 249 8.0 0.0 0.00 0.00 0.00 62 1012.2
20190321160942 52 245 8.0 0.0 0.00 0.00 0.00 61 1012.4
20190321155434 51 245 6.0 0.0 0.00 0.00 0.00 59 1012.5
20190321153928 51 245 3.0 0.0 0.00 0.00 0.00 55 1012.7
20190321152440 51 245 0.0 0.0 0.00 0.00 0.00 55 1012.7
20190321150935 51 245 2.0 0.0 0.00 0.00 0.00 55 1012.9
20190321145428 52 245 0.0 0.0 0.00 0.00 0.00 53 1013.0
20190321143946 51 249 0.0 0.0 0.00 0.00 0.00 55 1013.1
20190321142458 51 249 0.0 0.0 0.00 0.00 0.00 55 1013.1
20190321140927 51 249 0.0 0.0 0.00 0.00 0.00 51 1013.1
20190321135443 50 249 0.0 0.0 0.00 0.00 0.00 55 1013.3
20190321133934 50 249 0.0 0.0 0.00 0.00 0.00 62 1013.3
20190321132430 49 249 0.0 0.0 0.00 0.00 0.00 58 1013.3
20190321130941 49 249 0.0 0.0 0.00 0.00 0.00 58 1013.4
20190321125437 49 249 0.0 0.0 0.00 0.00 0.00 54 1013.2
20190321123928 49 249 1.0 0.0 0.00 0.00 0.00 56 1013.4
20190321122440 49 249 2.0 0.0 0.00 0.00 0.00 54 1013.2
20190321120935 49 249 1.0 0.0 0.00 0.00 0.00 53 1013.3
20190321115427 49 249 3.0 0.0 0.00 0.00 0.00 55 1013.4
20190321113943 49 249 5.0 0.0 0.00 0.00 0.00 52 1013.4
20190321112437 49 249 3.0 0.0 0.00 0.00 0.00 52 1013.4
20190321110935 49 249 5.0 0.0 0.00 0.00 0.00 55 1013.4
20190321105444 48 259 6.0 0.0 0.00 0.00 0.00 56 1013.4
20190321103935 48 294 4.0 0.0 0.00 0.00 0.00 64 1013.4
20190321102430 47 319 4.0 0.0 0.00 0.00 0.00 64 1013.3